Time;durP1;ratioP1;P1;durP2;ratioP2;P2;SDS_P1;SDS_P2;PMS_P1;PMS_P2;Temp;Humidity;BMP_temperature;BMP_pressure;BME280_temperature;BME280_humidity;BME280_pressure;Samples;Min_cycle;Max_cycle;Signal;HPM_P1;HPM_P2
2022/05/28 00:01:53;;;;;;;6.60;1.77;;;10.30;99.90;;;;;;4996186;28;20202;-63
2022/05/28 00:04:20;;;;;;;5.63;1.67;;;10.20;99.90;;;;;;5013014;28;20212;-63
2022/05/28 00:06:48;;;;;;;4.03;1.30;;;10.20;99.90;;;;;;5006971;28;20208;-62
2022/05/28 00:09:15;;;;;;;7.73;1.70;;;10.20;99.90;;;;;;5000570;28;20210;-63
2022/05/28 00:11:43;;;;;;;9.13;2.03;;;10.20;99.90;;;;;;5008532;28;20212;-63
2022/05/28 00:14:10;;;;;;;4.93;1.20;;;10.10;99.90;;;;;;5010670;28;20229;-63
2022/05/28 00:16:39;;;;;;;10.03;1.67;;;10.10;99.90;;;;;;5019045;28;20202;-62
2022/05/28 00:19:07;;;;;;;5.77;1.23;;;10.10;99.90;;;;;;4997822;28;20210;-63
2022/05/28 00:21:34;;;;;;;12.10;1.90;;;10.10;99.90;;;;;;5012157;28;20209;-63
2022/05/28 00:24:03;;;;;;;6.60;1.40;;;10.10;99.90;;;;;;5004529;28;20254;-63
2022/05/28 00:26:30;;;;;;;6.63;1.33;;;10.10;99.90;;;;;;5001148;28;20240;-63
2022/05/28 00:28:57;;;;;;;7.43;1.80;;;10.10;99.90;;;;;;5002343;28;20205;-62
2022/05/28 00:31:24;;;;;;;8.00;1.30;;;10.10;99.90;;;;;;5015941;28;20229;-62
2022/05/28 00:33:51;;;;;;;11.33;1.70;;;10.10;99.90;;;;;;4997551;28;20233;-62
2022/05/28 00:36:18;;;;;;;9.17;2.33;;;10.00;99.90;;;;;;5004046;28;20206;-63
2022/05/28 00:38:46;;;;;;;2.23;0.73;;;10.00;99.90;;;;;;5015532;28;20829;-63
2022/05/28 00:41:14;;;;;;;3.67;1.40;;;9.90;99.90;;;;;;4992328;28;20201;-62
2022/05/28 00:43:44;;;;;;;6.90;1.37;;;9.90;99.90;;;;;;5018964;28;20228;-62
2022/05/28 00:46:14;;;;;;;8.67;2.63;;;9.90;99.90;;;;;;5012856;28;20202;-62
2022/05/28 00:48:45;;;;;;;6.27;1.53;;;9.80;99.90;;;;;;5016161;28;20463;-62
2022/05/28 00:51:15;;;;;;;6.23;1.37;;;9.80;99.90;;;;;;4990748;28;20217;-63
2022/05/28 00:53:42;;;;;;;3.73;1.93;;;9.80;99.90;;;;;;5017338;28;20317;-63
2022/05/28 00:56:09;;;;;;;5.70;2.10;;;9.90;99.90;;;;;;5004032;28;20206;-62
2022/05/28 00:58:38;;;;;;;5.13;1.53;;;9.80;99.90;;;;;;4998361;28;20672;-62
2022/05/28 01:01:07;;;;;;;4.60;1.90;;;9.70;99.90;;;;;;5014569;28;21169;-62
2022/05/28 01:03:42;;;;;;;5.20;1.43;;;9.70;99.90;;;;;;5007342;28;20206;-62
2022/05/28 01:06:15;;;;;;;7.00;1.37;;;9.80;99.90;;;;;;4996860;28;21897;-62
2022/05/28 01:08:46;;;;;;;10.63;1.80;;;9.80;99.90;;;;;;5004065;28;20800;-62
2022/05/28 01:11:28;;;;;;;5.87;1.80;;;9.80;99.90;;;;;;5002063;28;20198;-62
2022/05/28 01:14:17;;;;;;;9.60;1.97;;;9.80;99.90;;;;;;5012608;28;20224;-62
2022/05/28 01:16:48;;;;;;;9.60;1.70;;;9.80;99.90;;;;;;5015849;28;20204;-62
2022/05/28 01:19:28;;;;;;;12.20;1.70;;;9.80;99.90;;;;;;5017084;28;20213;-62
2022/05/28 01:22:04;;;;;;;5.57;1.43;;;9.80;99.90;;;;;;4987367;28;20432;-62
2022/05/28 01:24:39;;;;;;;7.00;2.20;;;9.70;99.90;;;;;;5018424;28;20698;-63
2022/05/28 01:27:13;;;;;;;5.17;1.40;;;9.80;99.90;;;;;;5006397;28;21218;-62
2022/05/28 01:29:44;;;;;;;6.00;2.03;;;9.70;99.90;;;;;;5019835;28;20191;-62
2022/05/28 01:32:13;;;;;;;8.10;2.03;;;9.70;99.90;;;;;;5016771;28;20208;-62
2022/05/28 01:34:41;;;;;;;8.53;1.50;;;9.60;99.90;;;;;;5008815;28;20236;-62
2022/05/28 01:37:10;;;;;;;10.13;1.97;;;9.60;99.90;;;;;;4999466;28;20225;-62
2022/05/28 01:39:38;;;;;;;8.47;1.83;;;9.70;99.90;;;;;;5007351;28;20203;-62
2022/05/28 01:42:08;;;;;;;5.90;1.43;;;9.70;99.90;;;;;;5008656;28;20214;-62
2022/05/28 01:44:37;;;;;;;6.03;2.07;;;9.70;99.90;;;;;;5018843;28;20190;-62
2022/05/28 01:47:04;;;;;;;6.77;1.83;;;9.70;99.90;;;;;;5021533;28;20342;-62
2022/05/28 01:49:34;;;;;;;8.40;1.97;;;9.80;99.90;;;;;;5021822;28;20202;-62
2022/05/28 01:52:03;;;;;;;7.83;1.63;;;9.70;99.90;;;;;;4997916;28;20214;-62
2022/05/28 01:54:35;;;;;;;7.23;1.80;;;9.70;99.90;;;;;;5004559;28;20732;-62
2022/05/28 01:57:03;;;;;;;7.17;1.73;;;9.80;99.90;;;;;;5013333;28;20209;-63
2022/05/28 01:59:34;;;;;;;4.43;1.67;;;9.80;99.90;;;;;;5001118;28;20202;-62
2022/05/28 02:02:04;;;;;;;8.13;1.67;;;9.80;99.90;;;;;;5005107;28;20210;-62
2022/05/28 02:04:33;;;;;;;6.57;2.23;;;9.80;99.90;;;;;;5021347;28;20224;-62
2022/05/28 02:07:02;;;;;;;10.77;1.97;;;9.80;99.90;;;;;;5017480;28;20567;-62
2022/05/28 02:09:37;;;;;;;8.23;1.73;;;9.80;99.90;;;;;;4995556;28;20251;-62
2022/05/28 02:12:13;;;;;;;7.53;1.90;;;9.70;99.90;;;;;;5012924;28;20202;-62
2022/05/28 02:14:55;;;;;;;7.27;1.40;;;9.80;99.90;;;;;;4998126;28;20222;-62
2022/05/28 02:17:25;;;;;;;6.60;1.73;;;9.80;99.90;;;;;;5017696;28;20194;-62
2022/05/28 02:20:02;;;;;;;6.73;1.50;;;9.80;99.90;;;;;;5012444;28;20221;-62
2022/05/28 02:22:38;;;;;;;5.30;1.40;;;9.70;99.90;;;;;;5018281;28;20198;-62
2022/05/28 02:25:10;;;;;;;6.17;1.90;;;9.70;99.90;;;;;;4999511;28;20202;-62
2022/05/28 02:27:39;;;;;;;8.30;1.67;;;9.70;99.90;;;;;;5016000;28;20206;-63
2022/05/28 02:30:10;;;;;;;11.93;1.90;;;9.70;99.90;;;;;;5001613;28;20233;-62
2022/05/28 02:32:37;;;;;;;10.70;1.70;;;9.80;99.90;;;;;;5016897;28;20217;-63
2022/05/28 02:35:04;;;;;;;5.97;2.30;;;9.80;99.90;;;;;;5010774;28;20414;-63
2022/05/28 02:37:31;;;;;;;5.17;1.53;;;9.80;99.90;;;;;;5022314;28;20220;-62
2022/05/28 02:39:58;;;;;;;9.07;2.07;;;9.80;99.90;;;;;;4987953;28;21071;-63
2022/05/28 02:42:25;;;;;;;18.27;2.80;;;9.80;99.90;;;;;;5025459;28;20208;-63
2022/05/28 02:44:52;;;;;;;6.73;2.17;;;9.80;99.90;;;;;;5003192;28;20215;-63
2022/05/28 02:47:20;;;;;;;9.37;1.90;;;9.80;99.90;;;;;;5005329;28;20209;-62
2022/05/28 02:49:47;;;;;;;7.67;2.13;;;;;;;;;;5013879;28;20206;-63
2022/05/28 02:52:14;;;;;;;9.93;2.80;;;9.80;99.90;;;;;;5017978;28;20199;-64
2022/05/28 02:54:41;;;;;;;7.13;2.10;;;9.70;99.90;;;;;;4996063;28;21145;-62
2022/05/28 02:57:08;;;;;;;12.23;2.37;;;;;;;;;;4993608;28;20210;-63
2022/05/28 02:59:35;;;;;;;17.90;2.07;;;9.90;99.90;;;;;;5005213;28;20233;-63
2022/05/28 03:02:02;;;;;;;12.97;1.83;;;9.80;99.90;;;;;;5004597;28;20676;-63
2022/05/28 03:04:30;;;;;;;10.27;2.00;;;9.80;99.90;;;;;;5009956;28;20237;-63
2022/05/28 03:06:57;;;;;;;8.47;2.10;;;9.60;99.90;;;;;;5017538;28;20205;-63
2022/05/28 03:09:24;;;;;;;10.73;2.60;;;9.80;99.90;;;;;;5017439;28;20199;-63
2022/05/28 03:11:51;;;;;;;8.80;2.13;;;9.80;99.90;;;;;;4988292;28;20211;-63
2022/05/28 03:14:18;;;;;;;8.10;1.70;;;9.80;99.90;;;;;;5016109;28;20230;-63
2022/05/28 03:16:45;;;;;;;9.70;2.60;;;9.80;99.90;;;;;;5015599;28;20202;-63
2022/05/28 03:19:12;;;;;;;6.50;2.00;;;9.70;99.90;;;;;;5006287;28;20209;-62
2022/05/28 03:21:41;;;;;;;8.27;2.97;;;9.70;99.90;;;;;;5014749;28;20202;-62
2022/05/28 03:24:07;;;;;;;8.67;1.60;;;9.70;99.90;;;;;;5020495;28;20209;-62
2022/05/28 03:26:35;;;;;;;7.60;1.90;;;11.20;99.90;;;;;;5001382;28;20225;-63
2022/05/28 03:29:02;;;;;;;8.43;2.30;;;9.80;99.90;;;;;;5007225;28;20202;-63
2022/05/28 03:31:30;;;;;;;7.47;2.30;;;9.80;99.90;;;;;;4999185;28;20230;-63
2022/05/28 03:33:57;;;;;;;8.17;2.50;;;9.90;99.90;;;;;;4999814;28;20198;-63
2022/05/28 03:36:26;;;;;;;10.53;2.57;;;9.90;99.90;;;;;;5015982;28;20748;-63
2022/05/28 03:38:54;;;;;;;3.20;2.07;;;9.90;99.90;;;;;;5018639;28;21001;-62
2022/05/28 03:41:21;;;;;;;10.23;2.20;;;9.90;99.90;;;;;;5003440;28;20220;-62
2022/05/28 03:43:48;;;;;;;7.93;2.00;;;10.00;99.90;;;;;;5009144;28;20208;-63
2022/05/28 03:46:24;;;;;;;18.10;3.07;;;10.00;99.90;;;;;;5017570;28;21062;-62
2022/05/28 03:48:54;;;;;;;13.67;1.93;;;10.10;99.90;;;;;;5013505;28;20710;-63
2022/05/28 03:51:21;;;;;;;6.27;1.70;;;10.00;99.90;;;;;;5008076;28;20206;-63
2022/05/28 03:53:48;;;;;;;6.97;3.07;;;10.00;99.90;;;;;;5017931;28;20428;-62
2022/05/28 03:56:16;;;;;;;9.90;2.30;;;10.00;99.90;;;;;;4997577;28;20241;-63
2022/05/28 03:58:43;;;;;;;8.80;2.13;;;10.20;99.90;;;;;;5010158;28;20209;-62
2022/05/28 04:01:10;;;;;;;8.00;1.60;;;9.90;99.90;;;;;;5012096;28;20194;-62
2022/05/28 04:03:37;;;;;;;11.27;2.47;;;10.00;99.90;;;;;;5007921;28;20208;-62
2022/05/28 04:06:04;;;;;;;13.27;2.10;;;10.00;99.90;;;;;;5006416;28;20222;-62
2022/05/28 04:08:31;;;;;;;9.33;2.07;;;10.00;99.90;;;;;;5022299;28;20296;-63
2022/05/28 04:10:58;;;;;;;9.83;3.80;;;10.20;99.90;;;;;;4996822;28;20715;-63
2022/05/28 04:13:26;;;;;;;6.33;1.53;;;10.10;99.90;;;;;;5018988;28;20218;-62
2022/05/28 04:15:53;;;;;;;15.47;2.53;;;10.10;99.90;;;;;;5004889;28;20230;-62
2022/05/28 04:18:20;;;;;;;16.17;3.00;;;10.00;99.90;;;;;;5007046;28;20981;-62
2022/05/28 04:20:47;;;;;;;9.97;2.73;;;10.20;99.90;;;;;;5009474;28;20197;-62
2022/05/28 04:23:14;;;;;;;11.33;2.10;;;10.20;99.90;;;;;;5015510;28;20202;-63
2022/05/28 04:25:41;;;;;;;7.83;2.80;;;10.30;99.90;;;;;;5014425;28;20202;-62
2022/05/28 04:28:09;;;;;;;10.90;2.30;;;10.30;99.90;;;;;;5001843;28;20222;-62
2022/05/28 04:30:37;;;;;;;10.63;2.40;;;10.30;99.90;;;;;;5003509;28;20727;-62
2022/05/28 04:33:04;;;;;;;13.77;2.83;;;10.30;99.90;;;;;;5010891;28;20198;-63
2022/05/28 04:35:31;;;;;;;10.40;3.17;;;10.30;99.90;;;;;;5008282;28;20380;-63
2022/05/28 04:37:58;;;;;;;7.80;2.30;;;10.20;99.90;;;;;;5006654;28;20205;-63
2022/05/28 04:40:25;;;;;;;8.60;1.60;;;10.10;99.90;;;;;;5016358;28;20552;-63
2022/05/28 04:42:52;;;;;;;7.50;1.67;;;10.00;99.90;;;;;;4999497;28;20788;-63
2022/05/28 04:45:19;;;;;;;8.50;1.60;;;9.80;99.90;;;;;;5010819;28;20202;-63
2022/05/28 04:47:48;;;;;;;4.00;1.30;;;9.70;99.90;;;;;;5006839;28;20202;-63
2022/05/28 04:50:15;;;;;;;5.50;1.40;;;9.70;99.90;;;;;;5008164;28;21004;-63
2022/05/28 04:52:42;;;;;;;8.73;1.43;;;9.60;99.90;;;;;;5008233;28;20212;-62
2022/05/28 04:55:11;;;;;;;6.10;1.57;;;9.70;99.90;;;;;;5016370;28;20233;-63
2022/05/28 04:57:38;;;;;;;8.37;2.00;;;9.80;99.90;;;;;;5014190;28;20193;-63
2022/05/28 05:00:09;;;;;;;6.57;2.30;;;9.90;99.90;;;;;;4988108;28;20209;-63
2022/05/28 05:02:37;;;;;;;6.83;2.10;;;10.00;99.90;;;;;;5009090;28;20212;-63
2022/05/28 05:05:06;;;;;;;12.73;2.30;;;10.00;99.90;;;;;;5007828;28;20213;-62
2022/05/28 05:07:33;;;;;;;7.40;2.10;;;11.80;99.90;;;;;;5006674;28;20205;-63
2022/05/28 05:09:59;;;;;;;7.80;1.87;;;10.20;99.90;;;;;;5013288;28;20665;-63
2022/05/28 05:12:26;;;;;;;12.23;2.33;;;10.30;99.90;;;;;;5015899;28;20218;-63
2022/05/28 05:14:53;;;;;;;20.57;3.40;;;10.30;99.90;;;;;;5001665;28;20210;-62
2022/05/28 05:17:20;;;;;;;10.20;2.50;;;10.40;99.90;;;;;;4995356;28;20202;-63
2022/05/28 05:19:47;;;;;;;10.73;2.73;;;10.50;99.90;;;;;;5002618;28;20212;-63
2022/05/28 05:22:15;;;;;;;12.40;2.40;;;10.60;99.90;;;;;;4998806;28;20198;-63
2022/05/28 05:24:42;;;;;;;7.57;2.20;;;10.60;99.90;;;;;;5006028;28;20718;-63
2022/05/28 05:27:10;;;;;;;13.53;3.20;;;10.70;99.90;;;;;;5013624;28;20198;-63
2022/05/28 05:29:37;;;;;;;10.07;2.43;;;10.30;99.90;;;;;;4996294;28;20220;-63
2022/05/28 05:32:04;;;;;;;11.37;2.47;;;10.70;99.90;;;;;;4999073;28;20213;-62
2022/05/28 05:34:31;;;;;;;12.03;2.60;;;10.70;99.90;;;;;;5006404;28;21179;-63
2022/05/28 05:36:58;;;;;;;9.73;2.13;;;10.70;99.90;;;;;;5013305;28;20226;-62
2022/05/28 05:39:26;;;;;;;9.30;2.57;;;10.70;99.90;;;;;;5007806;28;20210;-63
2022/05/28 05:41:55;;;;;;;13.53;2.60;;;10.60;99.90;;;;;;5014236;28;20667;-62
2022/05/28 05:44:22;;;;;;;10.00;2.37;;;10.70;99.90;;;;;;4999947;28;20205;-62
2022/05/28 05:46:49;;;;;;;9.03;2.80;;;10.70;99.90;;;;;;4993278;28;20206;-63
2022/05/28 05:49:15;;;;;;;14.33;2.53;;;10.90;99.90;;;;;;4998099;28;20209;-63
2022/05/28 05:51:44;;;;;;;11.00;2.77;;;10.90;99.90;;;;;;5001806;28;20225;-63
2022/05/28 05:54:12;;;;;;;11.77;2.67;;;11.00;99.90;;;;;;5013219;28;20262;-63
2022/05/28 05:56:40;;;;;;;8.50;2.50;;;10.90;99.90;;;;;;5004484;28;20226;-63
2022/05/28 05:59:07;;;;;;;11.13;2.27;;;11.00;99.90;;;;;;5012687;28;20194;-63
2022/05/28 06:01:34;;;;;;;9.27;1.97;;;10.90;99.90;;;;;;4993172;28;20213;-62
2022/05/28 06:04:01;;;;;;;7.67;1.93;;;10.90;99.90;;;;;;4967349;28;20205;-63
2022/05/28 06:06:28;;;;;;;14.50;2.70;;;10.90;99.90;;;;;;4996548;28;20215;-63
2022/05/28 06:08:55;;;;;;;7.37;2.17;;;10.60;99.90;;;;;;4993262;28;20194;-63
2022/05/28 06:11:22;;;;;;;10.70;2.40;;;10.90;99.90;;;;;;5000636;28;21565;-63
2022/05/28 06:13:50;;;;;;;9.17;2.17;;;11.00;99.90;;;;;;5012266;28;20210;-63
2022/05/28 06:16:17;;;;;;;7.00;2.17;;;11.10;99.90;;;;;;4996610;28;20230;-62
2022/05/28 06:18:44;;;;;;;8.87;2.50;;;11.00;99.90;;;;;;5000335;28;20259;-63
2022/05/28 06:21:12;;;;;;;13.17;2.87;;;11.70;99.90;;;;;;5002238;28;20202;-63
2022/05/28 06:23:41;;;;;;;9.70;2.63;;;11.00;99.90;;;;;;4987936;28;20205;-62
2022/05/28 06:26:08;;;;;;;12.17;2.20;;;11.20;99.90;;;;;;5009493;28;20222;-63
2022/05/28 06:28:35;;;;;;;8.27;1.93;;;11.20;99.90;;;;;;5015482;28;20200;-63
2022/05/28 06:31:05;;;;;;;7.07;2.67;;;11.30;99.90;;;;;;5016752;28;20240;-63
2022/05/28 06:33:32;;;;;;;11.47;2.50;;;11.40;99.90;;;;;;4985052;28;20230;-63
2022/05/28 06:36:00;;;;;;;6.77;1.90;;;11.40;99.90;;;;;;4999176;28;20229;-63
2022/05/28 06:38:27;;;;;;;14.15;2.65;;;11.50;99.90;;;;;;4989132;28;20235;-63
2022/05/28 06:40:55;;;;;;;11.00;2.30;;;11.30;99.90;;;;;;4994959;28;20206;-63
2022/05/28 06:43:22;;;;;;;10.35;2.78;;;11.30;99.90;;;;;;5008040;28;20197;-63
2022/05/28 06:45:49;;;;;;;12.93;2.40;;;11.40;99.90;;;;;;5015056;28;20205;-63
2022/05/28 06:48:17;;;;;;;11.77;2.55;;;11.40;99.90;;;;;;4991895;28;20225;-63
2022/05/28 06:51:02;;;;;;;14.48;2.83;;;11.30;99.90;;;;;;4993058;28;20329;-62
2022/05/28 06:53:30;;;;;;;21.35;2.58;;;11.40;99.90;;;;;;5002008;28;21136;-63
2022/05/28 06:55:57;;;;;;;11.40;3.63;;;11.40;99.90;;;;;;4982391;28;23438;-63
2022/05/28 06:58:24;;;;;;;12.53;2.67;;;11.50;99.90;;;;;;5017294;28;20202;-62
2022/05/28 07:00:51;;;;;;;16.90;2.50;;;11.40;99.90;;;;;;5014657;28;20207;-62
2022/05/28 07:03:21;;;;;;;8.80;2.40;;;11.50;99.90;;;;;;4999575;28;20210;-63
2022/05/28 07:05:49;;;;;;;20.17;3.23;;;;;;;;;;4992453;28;20211;-62
2022/05/28 07:08:16;;;;;;;5.40;2.28;;;11.60;99.90;;;;;;5007209;28;20304;-62
2022/05/28 07:10:45;;;;;;;5.90;1.73;;;11.60;99.90;;;;;;4995302;28;20213;-63
2022/05/28 07:13:13;;;;;;;7.90;1.70;;;10.60;99.90;;;;;;5003786;28;20207;-63
2022/05/28 07:15:40;;;;;;;4.33;1.63;;;10.80;99.90;;;;;;5004887;28;20217;-62
2022/05/28 07:18:07;;;;;;;11.67;1.97;;;10.70;99.90;;;;;;4998690;28;20218;-63
2022/05/28 07:20:36;;;;;;;9.93;2.67;;;10.80;99.90;;;;;;5002073;28;20230;-62
2022/05/28 07:23:09;;;;;;;6.50;2.33;;;11.10;99.90;;;;;;4991811;28;20237;-63
2022/05/28 07:25:36;;;;;;;7.20;2.70;;;11.20;99.90;;;;;;5002874;28;20203;-62
2022/05/28 07:28:24;;;;;;;8.93;2.20;;;11.30;99.90;;;;;;4994818;28;20221;-63
2022/05/28 07:30:50;;;;;;;8.10;2.40;;;11.40;99.90;;;;;;5003273;28;20362;-62
2022/05/28 07:33:16;;;;;;;8.93;2.20;;;11.20;99.90;;;;;;4982443;28;20619;-62
2022/05/28 07:35:45;;;;;;;9.70;2.28;;;11.50;99.90;;;;;;5008924;28;20234;-62
2022/05/28 07:38:12;;;;;;;18.95;2.53;;;11.60;99.90;;;;;;4985629;28;20845;-62
2022/05/28 07:40:39;;;;;;;10.65;2.58;;;11.80;99.90;;;;;;4997578;28;22900;-62
2022/05/28 07:43:06;;;;;;;9.60;3.13;;;11.80;99.90;;;;;;5009035;28;20202;-62
2022/05/28 07:45:37;;;;;;;8.38;2.47;;;11.90;99.90;;;;;;5001154;28;20780;-62
2022/05/28 07:48:05;;;;;;;10.32;1.90;;;11.80;99.90;;;;;;4988576;28;20213;-63
2022/05/28 07:50:31;;;;;;;10.85;2.65;;;12.30;99.90;;;;;;4996984;28;20690;-63
2022/05/28 07:53:00;;;;;;;9.48;1.90;;;12.20;99.90;;;;;;4994736;28;20202;-63
2022/05/28 07:55:27;;;;;;;11.07;2.15;;;12.20;99.90;;;;;;5004320;28;20209;-62
2022/05/28 07:57:54;;;;;;;11.75;2.78;;;12.40;99.90;;;;;;4999294;28;20226;-62
2022/05/28 08:00:21;;;;;;;16.40;3.15;;;12.40;99.90;;;;;;5011513;28;21037;-63
2022/05/28 08:02:48;;;;;;;14.80;2.55;;;12.30;99.90;;;;;;5010264;28;20575;-63
2022/05/28 08:05:15;;;;;;;14.57;3.33;;;13.80;99.90;;;;;;4986399;28;20210;-63
2022/05/28 08:07:42;;;;;;;10.90;2.08;;;12.30;99.90;;;;;;5003319;28;20210;-62
2022/05/28 08:10:10;;;;;;;6.20;1.58;;;12.80;99.90;;;;;;5004781;28;20206;-62
2022/05/28 08:12:37;;;;;;;9.98;2.30;;;12.50;99.90;;;;;;4998752;28;20202;-62
2022/05/28 08:15:05;;;;;;;8.10;1.88;;;12.20;99.90;;;;;;5003681;28;20206;-62
2022/05/28 08:17:32;;;;;;;6.70;1.90;;;12.30;99.90;;;;;;5003741;28;20228;-62
2022/05/28 08:19:59;;;;;;;9.95;2.92;;;12.30;99.90;;;;;;4997621;28;20206;-62
2022/05/28 08:25:11;;;;;;;7.53;2.00;;;11.50;99.90;;;;;;5002544;28;20340;-62
2022/05/28 08:27:38;;;;;;;7.50;1.67;;;11.30;99.90;;;;;;5002664;28;20214;-62
2022/05/28 08:30:06;;;;;;;4.10;1.40;;;11.20;99.90;;;;;;5004181;28;20711;-62
2022/05/28 08:32:33;;;;;;;9.23;2.58;;;9.90;99.90;;;;;;5011757;28;20214;-62
2022/05/28 08:35:00;;;;;;;12.20;2.30;;;12.00;99.90;;;;;;4995443;28;20210;-62
2022/05/28 08:37:27;;;;;;;4.25;1.33;;;11.40;99.90;;;;;;5010584;28;20244;-62
2022/05/28 08:39:54;;;;;;;6.10;1.67;;;11.50;99.90;;;;;;5007653;28;20213;-62
2022/05/28 08:42:26;;;;;;;10.47;1.93;;;11.70;99.90;;;;;;5007665;28;20205;-62
2022/05/28 08:44:55;;;;;;;11.88;2.15;;;11.90;99.90;;;;;;4996247;28;21842;-62
2022/05/28 08:47:26;;;;;;;12.27;2.15;;;12.40;99.90;;;;;;5007370;23;20238;-62
2022/05/28 08:49:53;;;;;;;8.35;2.38;;;12.50;99.90;;;;;;4963073;28;21680;-62
2022/05/28 08:52:25;;;;;;;8.93;3.75;;;12.60;99.90;;;;;;4986972;28;20882;-62
2022/05/28 08:54:58;;;;;;;10.07;3.13;;;12.80;99.90;;;;;;4993829;28;20293;-61
2022/05/28 08:57:35;;;;;;;16.05;2.35;;;12.90;99.90;;;;;;4985957;28;20242;-62
2022/05/28 09:00:06;;;;;;;12.85;2.83;;;12.70;99.90;;;;;;4978716;28;27109;-62
2022/05/28 09:02:38;;;;;;;6.60;2.33;;;12.60;99.90;;;;;;4983383;28;20221;-62
2022/05/28 09:05:14;;;;;;;6.68;1.80;;;12.50;99.90;;;;;;4933155;28;20882;-62
2022/05/28 09:07:41;;;;;;;10.23;2.72;;;12.40;99.90;;;;;;4960302;28;20206;-63
2022/05/28 09:10:11;;;;;;;9.13;1.88;;;12.50;99.90;;;;;;4966768;28;20305;-62
2022/05/28 09:12:44;;;;;;;8.50;1.67;;;12.50;99.90;;;;;;4963659;28;20207;-63
2022/05/28 09:15:12;;;;;;;9.73;1.92;;;12.60;99.90;;;;;;4964833;28;20227;-62
2022/05/28 09:17:43;;;;;;;8.80;2.85;;;12.60;99.90;;;;;;4972973;28;20234;-62
2022/05/28 09:20:13;;;;;;;7.32;1.75;;;12.90;99.90;;;;;;4964530;28;20565;-62
2022/05/28 09:22:40;;;;;;;6.00;2.22;;;13.00;99.90;;;;;;4954165;28;20229;-62
2022/05/28 09:25:08;;;;;;;7.97;2.08;;;12.90;99.90;;;;;;4972021;28;21239;-62
2022/05/28 09:27:45;;;;;;;7.85;1.85;;;12.80;99.90;;;;;;4963204;28;20203;-62
2022/05/28 09:30:20;;;;;;;9.48;2.38;;;12.90;99.90;;;;;;4964861;28;20207;-62
2022/05/28 09:33:01;;;;;;;7.40;2.10;;;12.90;99.90;;;;;;4968869;28;20358;-62
2022/05/28 09:35:44;;;;;;;11.65;2.22;;;12.90;99.90;;;;;;4974597;28;20208;-62
2022/05/28 09:38:17;;;;;;;6.50;1.85;;;12.70;99.90;;;;;;4954394;28;20227;-62
2022/05/28 09:40:50;;;;;;;7.68;2.22;;;12.50;99.90;;;;;;4961661;28;20290;-62
2022/05/28 09:43:36;;;;;;;7.47;2.03;;;12.50;99.90;;;;;;4963364;28;20672;-62
2022/05/28 09:46:13;;;;;;;7.80;2.40;;;12.70;99.90;;;;;;4964476;28;20227;-62
2022/05/28 09:48:40;;;;;;;6.20;2.20;;;12.90;99.90;;;;;;4980160;28;20730;-62
2022/05/28 09:51:21;;;;;;;10.35;1.80;;;15.30;99.90;;;;;;4958995;28;20216;-62
2022/05/28 09:56:37;;;;;;;6.05;1.50;;;12.40;99.90;;;;;;4977474;28;20997;-62
2022/05/28 09:59:20;;;;;;;9.15;2.10;;;11.30;99.90;;;;;;4970925;28;20199;-62
2022/05/28 10:01:53;;;;;;;5.73;2.10;;;11.20;99.90;;;;;;4963027;28;20213;-62
2022/05/28 10:04:30;;;;;;;14.55;2.80;;;11.10;99.90;;;;;;4975996;28;20566;-62
2022/05/28 10:07:00;;;;;;;15.50;2.43;;;11.30;99.90;;;;;;4962469;28;20204;-62
2022/05/28 10:09:29;;;;;;;11.77;2.50;;;11.20;99.90;;;;;;4959979;28;20787;-62
2022/05/28 10:11:59;;;;;;;9.67;2.90;;;11.30;99.90;;;;;;4970280;28;20277;-62
2022/05/28 10:14:29;;;;;;;13.33;2.43;;;11.60;99.90;;;;;;4960374;28;20222;-63
2022/05/28 10:16:58;;;;;;;14.07;3.10;;;11.80;99.90;;;;;;4960298;28;20233;-63
2022/05/28 10:19:30;;;;;;;9.13;2.47;;;11.30;99.90;;;;;;4974821;28;20208;-62
2022/05/28 10:22:01;;;;;;;11.23;2.60;;;11.70;99.90;;;;;;4970699;28;20206;-63
2022/05/28 10:24:36;;;;;;;12.35;2.35;;;12.20;99.90;;;;;;4939923;28;20230;-62
2022/05/28 10:27:03;;;;;;;8.13;2.97;;;11.90;99.90;;;;;;4973524;28;20202;-62
2022/05/28 10:29:38;;;;;;;15.02;3.17;;;12.10;99.90;;;;;;4974293;28;20203;-62
2022/05/28 10:32:17;;;;;;;15.13;3.45;;;12.00;99.90;;;;;;4961631;28;20243;-62
2022/05/28 10:34:44;;;;;;;15.48;3.22;;;12.20;99.90;;;;;;4973850;28;20208;-62
2022/05/28 10:37:12;;;;;;;8.98;2.83;;;12.30;99.90;;;;;;4971017;28;20715;-62
2022/05/28 10:39:40;;;;;;;11.13;2.00;;;12.50;99.90;;;;;;4948541;28;20650;-62
2022/05/28 10:42:10;;;;;;;13.13;2.17;;;12.40;99.90;;;;;;4976710;28;20566;-62
2022/05/28 10:44:39;;;;;;;5.38;1.98;;;12.50;99.90;;;;;;4974478;28;20319;-62
2022/05/28 10:47:29;;;;;;;10.02;2.45;;;12.70;99.90;;;;;;4961951;28;20227;-62
2022/05/28 10:50:05;;;;;;;12.32;2.53;;;12.80;99.90;;;;;;4977848;28;20199;-62
2022/05/28 10:52:42;;;;;;;9.77;2.00;;;12.80;99.90;;;;;;4973114;28;20969;-61
2022/05/28 10:55:12;;;;;;;9.02;2.22;;;12.90;99.90;;;;;;4959455;28;20212;-61
2022/05/28 10:58:01;;;;;;;9.88;1.77;;;12.70;99.90;;;;;;4975540;28;20224;-63
2022/05/28 11:00:36;;;;;;;8.30;2.08;;;12.90;99.90;;;;;;4974756;28;20230;-62
2022/05/28 11:03:22;;;;;;;10.25;2.50;;;13.00;99.90;;;;;;4965237;28;20703;-63
2022/05/28 11:06:31;;;;;;;11.38;1.83;;;13.10;99.90;;;;;;4969232;28;20219;-60
2022/05/28 11:09:08;;;;;;;6.80;1.75;;;12.90;99.90;;;;;;4961304;28;20281;-60
2022/05/28 11:11:47;;;;;;;7.68;1.80;;;12.60;99.90;;;;;;4946556;28;22695;-60
2022/05/28 11:14:54;;;;;;;6.40;2.47;;;12.40;99.90;;;;;;4970745;28;20206;-60
2022/05/28 11:17:37;;;;;;;10.05;2.25;;;12.60;99.90;;;;;;4966132;28;20223;-60
2022/05/28 11:20:19;;;;;;;7.15;1.67;;;12.70;99.90;;;;;;4962887;28;20207;-60
2022/05/28 11:23:16;;;;;;;5.80;1.83;;;12.50;99.90;;;;;;4963190;28;20231;-60
2022/05/28 11:25:57;;;;;;;8.60;1.92;;;12.30;99.90;;;;;;4959915;28;20911;-60
2022/05/28 11:28:45;;;;;;;8.50;1.80;;;12.30;99.90;;;;;;4952536;28;20207;-60
2022/05/28 11:31:19;;;;;;;8.07;2.03;;;12.70;99.90;;;;;;4972366;28;20291;-61
2022/05/28 11:33:50;;;;;;;14.98;2.42;;;12.80;99.90;;;;;;4952663;28;20566;-60
2022/05/28 11:36:25;;;;;;;6.10;1.58;;;12.70;99.90;;;;;;4968262;28;20207;-60
2022/05/28 11:38:56;;;;;;;5.50;1.83;;;13.10;99.90;;;;;;4959780;28;20226;-60
2022/05/28 11:41:32;;;;;;;6.47;1.55;;;13.10;99.90;;;;;;4953902;28;20208;-60
2022/05/28 11:44:06;;;;;;;7.32;1.52;;;13.20;99.90;;;;;;4955909;28;20261;-60
2022/05/28 11:46:38;;;;;;;9.05;1.77;;;13.20;99.90;;;;;;4972701;28;20207;-59
2022/05/28 11:52:06;;;;;;;8.02;2.15;;;9.70;99.90;;;;;;4959310;28;20232;-60
2022/05/28 11:54:38;;;;;;;4.95;1.63;;;13.20;99.90;;;;;;4973803;28;20221;-60
2022/05/28 11:57:09;;;;;;;2.25;1.35;;;13.10;99.90;;;;;;4950498;28;20806;-60
2022/05/28 11:59:38;;;;;;;8.00;1.63;;;13.20;99.90;;;;;;4974515;28;20204;-60
2022/05/28 12:02:10;;;;;;;11.30;1.67;;;13.30;99.90;;;;;;4963776;28;21004;-60
2022/05/28 12:04:41;;;;;;;4.22;1.30;;;13.60;99.90;;;;;;4947731;28;20207;-60
2022/05/28 12:07:11;;;;;;;5.05;1.52;;;13.40;99.90;;;;;;4958416;28;20222;-60
2022/05/28 12:09:43;;;;;;;7.45;1.73;;;13.10;99.90;;;;;;4969396;28;20206;-59
2022/05/28 12:12:17;;;;;;;6.35;2.15;;;13.40;99.90;;;;;;4969827;28;20744;-60
2022/05/28 12:14:47;;;;;;;13.18;1.88;;;13.20;99.90;;;;;;4946445;28;20210;-60
2022/05/28 12:17:26;;;;;;;5.03;1.42;;;13.30;99.90;;;;;;4972524;28;20241;-60
2022/05/28 12:19:57;;;;;;;10.00;1.98;;;13.40;99.90;;;;;;4949437;28;21102;-60
2022/05/28 12:22:35;;;;;;;9.07;1.73;;;12.80;99.90;;;;;;4961187;28;20222;-60
2022/05/28 12:25:08;;;;;;;7.68;2.10;;;13.10;99.90;;;;;;4971578;28;20204;-60
2022/05/28 12:27:41;;;;;;;4.78;1.38;;;12.80;99.90;;;;;;4970165;28;20203;-60
2022/05/28 12:30:23;;;;;;;7.97;1.88;;;12.90;99.90;;;;;;4961772;28;20207;-60
2022/05/28 12:32:52;;;;;;;9.93;2.10;;;13.30;99.90;;;;;;4967188;28;20571;-60
2022/05/28 12:35:38;;;;;;;5.28;1.45;;;13.40;99.90;;;;;;4964871;28;20227;-60
2022/05/28 12:38:19;;;;;;;5.97;1.85;;;13.50;99.90;;;;;;4955908;28;20223;-61
2022/05/28 12:40:54;;;;;;;9.55;2.10;;;13.70;99.90;;;;;;4964182;28;20213;-61
2022/05/28 12:43:29;;;;;;;6.07;1.67;;;16.50;99.90;;;;;;4952674;28;20207;-61
2022/05/28 12:45:58;;;;;;;4.50;1.60;;;13.10;99.90;;;;;;4967516;28;20199;-61
2022/05/28 12:48:29;;;;;;;5.32;1.65;;;13.20;99.90;;;;;;4963305;28;20242;-61
2022/05/28 12:51:15;;;;;;;5.43;1.58;;;14.80;99.90;;;;;;4961487;28;21553;-61
2022/05/28 12:53:51;;;;;;;7.70;1.40;;;13.30;99.90;;;;;;4958883;28;20203;-61
2022/05/28 12:56:43;;;;;;;7.68;1.65;;;13.30;99.90;;;;;;4966423;28;20241;-61
2022/05/28 12:59:12;;;;;;;10.15;3.25;;;13.30;99.90;;;;;;4957136;28;20235;-61
2022/05/28 13:01:48;;;;;;;4.80;1.48;;;13.20;99.90;;;;;;4938630;28;20227;-61
2022/05/28 13:04:19;;;;;;;10.88;2.35;;;13.30;99.90;;;;;;4968526;28;20206;-61
2022/05/28 13:06:50;;;;;;;8.13;1.92;;;13.20;99.90;;;;;;4953332;28;20204;-61
2022/05/28 13:09:22;;;;;;;7.78;1.90;;;13.10;99.90;;;;;;4958445;28;20204;-61
2022/05/28 13:11:54;;;;;;;5.15;1.70;;;13.30;99.90;;;;;;4970042;28;20740;-60
2022/05/28 13:15:05;;;;;;;7.55;1.70;;;13.30;99.90;;;;;;4958109;28;20227;-61